sensor_id;sensor_type;location;lat;lon;timestamp;temperature;humidity
51637;DHT22;37713;53.254;6.460;2022-12-20T00:02:22;8.90;99.90
51637;DHT22;37713;53.254;6.460;2022-12-20T00:04:48;9.00;99.90
51637;DHT22;37713;53.254;6.460;2022-12-20T00:07:14;9.00;99.90
51637;DHT22;37713;53.254;6.460;2022-12-20T00:09:40;9.00;99.90
51637;DHT22;37713;53.254;6.460;2022-12-20T00:12:05;9.00;99.90
51637;DHT22;37713;53.254;6.460;2022-12-20T00:14:31;9.00;99.90
51637;DHT22;37713;53.254;6.460;2022-12-20T00:16:57;9.00;99.90
51637;DHT22;37713;53.254;6.460;2022-12-20T00:19:23;9.00;99.90
51637;DHT22;37713;53.254;6.460;2022-12-20T00:21:48;9.00;99.90
51637;DHT22;37713;53.254;6.460;2022-12-20T00:24:14;9.00;99.90
51637;DHT22;37713;53.254;6.460;2022-12-20T00:26:40;9.00;99.90
51637;DHT22;37713;53.254;6.460;2022-12-20T00:29:06;9.00;99.90
51637;DHT22;37713;53.254;6.460;2022-12-20T00:31:32;9.00;99.90
51637;DHT22;37713;53.254;6.460;2022-12-20T00:34:00;9.00;99.90
51637;DHT22;37713;53.254;6.460;2022-12-20T00:36:27;9.00;99.90
51637;DHT22;37713;53.254;6.460;2022-12-20T00:38:57;9.10;99.90
51637;DHT22;37713;53.254;6.460;2022-12-20T00:41:29;9.00;99.90
51637;DHT22;37713;53.254;6.460;2022-12-20T00:43:55;9.10;99.90
51637;DHT22;37713;53.254;6.460;2022-12-20T00:46:22;9.10;99.90
51637;DHT22;37713;53.254;6.460;2022-12-20T00:48:49;9.10;99.90
51637;DHT22;37713;53.254;6.460;2022-12-20T00:51:18;9.10;99.90
51637;DHT22;37713;53.254;6.460;2022-12-20T00:53:44;9.10;99.90
51637;DHT22;37713;53.254;6.460;2022-12-20T00:56:10;9.10;99.90
51637;DHT22;37713;53.254;6.460;2022-12-20T00:58:39;9.10;99.90
51637;DHT22;37713;53.254;6.460;2022-12-20T01:01:12;9.10;99.90
51637;DHT22;37713;53.254;6.460;2022-12-20T01:03:39;9.10;99.90
51637;DHT22;37713;53.254;6.460;2022-12-20T01:06:05;9.00;99.90
51637;DHT22;37713;53.254;6.460;2022-12-20T01:08:30;9.00;99.90
51637;DHT22;37713;53.254;6.460;2022-12-20T01:11:02;9.00;99.90
51637;DHT22;37713;53.254;6.460;2022-12-20T01:13:30;9.00;99.90
51637;DHT22;37713;53.254;6.460;2022-12-20T01:15:57;9.00;99.90
51637;DHT22;37713;53.254;6.460;2022-12-20T01:18:27;9.00;99.90
51637;DHT22;37713;53.254;6.460;2022-12-20T01:21:04;9.00;99.90
51637;DHT22;37713;53.254;6.460;2022-12-20T01:23:30;9.00;99.90
51637;DHT22;37713;53.254;6.460;2022-12-20T01:26:01;9.00;99.90
51637;DHT22;37713;53.254;6.460;2022-12-20T01:28:27;9.00;99.90
51637;DHT22;37713;53.254;6.460;2022-12-20T01:30:53;9.00;99.90
51637;DHT22;37713;53.254;6.460;2022-12-20T01:33:19;9.10;99.90
51637;DHT22;37713;53.254;6.460;2022-12-20T01:35:59;9.10;99.90
51637;DHT22;37713;53.254;6.460;2022-12-20T01:38:26;9.10;99.90
51637;DHT22;37713;53.254;6.460;2022-12-20T01:40:52;9.10;99.90
51637;DHT22;37713;53.254;6.460;2022-12-20T01:43:19;9.10;99.90
51637;DHT22;37713;53.254;6.460;2022-12-20T01:45:45;9.00;99.90
51637;DHT22;37713;53.254;6.460;2022-12-20T01:48:13;9.00;99.90
51637;DHT22;37713;53.254;6.460;2022-12-20T01:50:41;9.00;99.90
51637;DHT22;37713;53.254;6.460;2022-12-20T01:53:07;9.00;99.90
51637;DHT22;37713;53.254;6.460;2022-12-20T01:55:33;9.00;99.90
51637;DHT22;37713;53.254;6.460;2022-12-20T01:58:08;9.00;99.90
51637;DHT22;37713;53.254;6.460;2022-12-20T02:00:35;8.90;99.90
51637;DHT22;37713;53.254;6.460;2022-12-20T02:03:05;8.90;99.90
51637;DHT22;37713;53.254;6.460;2022-12-20T02:05:37;8.90;99.90
51637;DHT22;37713;53.254;6.460;2022-12-20T02:08:04;8.90;99.90
51637;DHT22;37713;53.254;6.460;2022-12-20T02:11:23;8.90;99.90
51637;DHT22;37713;53.254;6.460;2022-12-20T02:16:04;8.80;99.90
51637;DHT22;37713;53.254;6.460;2022-12-20T02:18:47;8.90;99.90
51637;DHT22;37713;53.254;6.460;2022-12-20T02:21:32;8.90;99.90
51637;DHT22;37713;53.254;6.460;2022-12-20T02:27:34;8.80;99.90
51637;DHT22;37713;53.254;6.460;2022-12-20T02:30:04;8.80;99.90
51637;DHT22;37713;53.254;6.460;2022-12-20T02:35:00;8.80;99.90
51637;DHT22;37713;53.254;6.460;2022-12-20T02:37:26;8.80;99.90
51637;DHT22;37713;53.254;6.460;2022-12-20T02:39:52;8.80;99.90
51637;DHT22;37713;53.254;6.460;2022-12-20T02:42:21;8.80;99.90
51637;DHT22;37713;53.254;6.460;2022-12-20T02:45:02;8.70;99.90
51637;DHT22;37713;53.254;6.460;2022-12-20T02:50:20;8.80;99.90
51637;DHT22;37713;53.254;6.460;2022-12-20T02:52:47;8.80;99.90
51637;DHT22;37713;53.254;6.460;2022-12-20T02:55:13;8.80;99.90
51637;DHT22;37713;53.254;6.460;2022-12-20T02:58:05;8.80;99.90
51637;DHT22;37713;53.254;6.460;2022-12-20T03:00:39;8.80;99.90
51637;DHT22;37713;53.254;6.460;2022-12-20T03:03:08;8.80;99.90
51637;DHT22;37713;53.254;6.460;2022-12-20T03:05:54;8.80;99.90
51637;DHT22;37713;53.254;6.460;2022-12-20T03:08:21;8.80;99.90
51637;DHT22;37713;53.254;6.460;2022-12-20T03:10:48;8.70;99.90
51637;DHT22;37713;53.254;6.460;2022-12-20T03:13:14;8.80;99.90
51637;DHT22;37713;53.254;6.460;2022-12-20T03:15:40;8.70;99.90
51637;DHT22;37713;53.254;6.460;2022-12-20T03:18:06;8.80;99.90
51637;DHT22;37713;53.254;6.460;2022-12-20T03:20:33;8.80;99.90
51637;DHT22;37713;53.254;6.460;2022-12-20T03:22:59;8.80;99.90
51637;DHT22;37713;53.254;6.460;2022-12-20T03:25:25;8.80;99.90
51637;DHT22;37713;53.254;6.460;2022-12-20T03:27:50;8.80;99.90
51637;DHT22;37713;53.254;6.460;2022-12-20T03:30:16;8.70;99.90
51637;DHT22;37713;53.254;6.460;2022-12-20T03:32:42;8.70;99.90
51637;DHT22;37713;53.254;6.460;2022-12-20T03:35:08;8.80;99.90
51637;DHT22;37713;53.254;6.460;2022-12-20T03:37:34;8.80;99.90
51637;DHT22;37713;53.254;6.460;2022-12-20T03:40:00;8.80;99.90
51637;DHT22;37713;53.254;6.460;2022-12-20T03:42:26;8.80;99.90
51637;DHT22;37713;53.254;6.460;2022-12-20T03:44:51;8.80;99.90
51637;DHT22;37713;53.254;6.460;2022-12-20T03:47:17;8.90;99.90
51637;DHT22;37713;53.254;6.460;2022-12-20T03:49:43;8.90;99.90
51637;DHT22;37713;53.254;6.460;2022-12-20T03:52:11;8.90;99.90
51637;DHT22;37713;53.254;6.460;2022-12-20T03:54:37;8.90;99.90
51637;DHT22;37713;53.254;6.460;2022-12-20T03:57:03;8.80;99.90
51637;DHT22;37713;53.254;6.460;2022-12-20T03:59:29;8.80;99.90
51637;DHT22;37713;53.254;6.460;2022-12-20T04:01:54;8.90;99.90
51637;DHT22;37713;53.254;6.460;2022-12-20T04:04:20;8.90;99.90
51637;DHT22;37713;53.254;6.460;2022-12-20T04:06:46;8.80;99.90
51637;DHT22;37713;53.254;6.460;2022-12-20T04:09:13;8.90;99.90
51637;DHT22;37713;53.254;6.460;2022-12-20T04:11:39;8.90;99.90
51637;DHT22;37713;53.254;6.460;2022-12-20T04:14:04;8.90;99.90
51637;DHT22;37713;53.254;6.460;2022-12-20T04:16:30;8.90;99.90
51637;DHT22;37713;53.254;6.460;2022-12-20T04:18:56;8.90;99.90
51637;DHT22;37713;53.254;6.460;2022-12-20T04:21:24;8.90;99.90
51637;DHT22;37713;53.254;6.460;2022-12-20T04:23:50;9.00;99.90
51637;DHT22;37713;53.254;6.460;2022-12-20T04:26:16;9.00;99.90
51637;DHT22;37713;53.254;6.460;2022-12-20T04:28:41;9.00;99.90
51637;DHT22;37713;53.254;6.460;2022-12-20T04:31:07;9.10;99.90
51637;DHT22;37713;53.254;6.460;2022-12-20T04:33:33;9.00;99.90
51637;DHT22;37713;53.254;6.460;2022-12-20T04:35:59;9.10;99.90
51637;DHT22;37713;53.254;6.460;2022-12-20T04:38:24;9.20;99.90
51637;DHT22;37713;53.254;6.460;2022-12-20T04:40:51;9.20;99.90
51637;DHT22;37713;53.254;6.460;2022-12-20T04:43:18;9.20;99.90
51637;DHT22;37713;53.254;6.460;2022-12-20T04:45:47;9.30;99.90
51637;DHT22;37713;53.254;6.460;2022-12-20T04:48:13;9.20;99.90
51637;DHT22;37713;53.254;6.460;2022-12-20T04:50:39;9.30;99.90
51637;DHT22;37713;53.254;6.460;2022-12-20T04:53:05;9.30;99.90
51637;DHT22;37713;53.254;6.460;2022-12-20T04:55:50;9.30;99.90
51637;DHT22;37713;53.254;6.460;2022-12-20T04:58:16;9.40;99.90
51637;DHT22;37713;53.254;6.460;2022-12-20T05:00:41;9.40;99.90
51637;DHT22;37713;53.254;6.460;2022-12-20T05:03:07;9.30;99.90
51637;DHT22;37713;53.254;6.460;2022-12-20T05:05:33;9.40;99.90
51637;DHT22;37713;53.254;6.460;2022-12-20T05:07:58;9.40;99.90
51637;DHT22;37713;53.254;6.460;2022-12-20T05:10:24;9.40;99.90
51637;DHT22;37713;53.254;6.460;2022-12-20T05:12:50;9.40;99.90
51637;DHT22;37713;53.254;6.460;2022-12-20T05:15:16;9.40;99.90
51637;DHT22;37713;53.254;6.460;2022-12-20T05:17:42;9.40;99.90
51637;DHT22;37713;53.254;6.460;2022-12-20T05:20:08;9.50;99.90
51637;DHT22;37713;53.254;6.460;2022-12-20T05:22:34;9.40;99.90
51637;DHT22;37713;53.254;6.460;2022-12-20T05:25:18;9.50;99.90
51637;DHT22;37713;53.254;6.460;2022-12-20T05:28:03;9.50;99.90
51637;DHT22;37713;53.254;6.460;2022-12-20T05:30:29;9.50;99.90
51637;DHT22;37713;53.254;6.460;2022-12-20T05:32:55;9.60;99.90
51637;DHT22;37713;53.254;6.460;2022-12-20T05:35:21;9.60;99.90
51637;DHT22;37713;53.254;6.460;2022-12-20T05:37:46;9.60;99.90
51637;DHT22;37713;53.254;6.460;2022-12-20T05:40:12;9.60;99.90
51637;DHT22;37713;53.254;6.460;2022-12-20T05:42:38;9.70;99.90
51637;DHT22;37713;53.254;6.460;2022-12-20T05:45:05;9.60;99.90
51637;DHT22;37713;53.254;6.460;2022-12-20T05:47:32;9.70;99.90
51637;DHT22;37713;53.254;6.460;2022-12-20T05:50:02;9.70;99.90
51637;DHT22;37713;53.254;6.460;2022-12-20T05:52:28;9.70;99.90
51637;DHT22;37713;53.254;6.460;2022-12-20T05:54:54;9.70;99.90
51637;DHT22;37713;53.254;6.460;2022-12-20T05:57:20;9.70;99.90
51637;DHT22;37713;53.254;6.460;2022-12-20T05:59:46;9.70;99.90
51637;DHT22;37713;53.254;6.460;2022-12-20T06:02:12;9.80;99.90
51637;DHT22;37713;53.254;6.460;2022-12-20T06:04:38;9.70;99.90
51637;DHT22;37713;53.254;6.460;2022-12-20T06:07:04;9.70;99.90
51637;DHT22;37713;53.254;6.460;2022-12-20T06:09:30;9.70;99.90
51637;DHT22;37713;53.254;6.460;2022-12-20T06:11:57;9.70;99.90
51637;DHT22;37713;53.254;6.460;2022-12-20T06:14:23;9.70;99.90
51637;DHT22;37713;53.254;6.460;2022-12-20T06:16:49;9.60;99.90
51637;DHT22;37713;53.254;6.460;2022-12-20T06:19:15;9.70;99.90
51637;DHT22;37713;53.254;6.460;2022-12-20T06:21:41;9.70;99.90
51637;DHT22;37713;53.254;6.460;2022-12-20T06:24:07;9.60;99.90
51637;DHT22;37713;53.254;6.460;2022-12-20T06:26:33;9.60;99.90
51637;DHT22;37713;53.254;6.460;2022-12-20T06:29:05;9.70;99.90
51637;DHT22;37713;53.254;6.460;2022-12-20T06:31:35;9.70;99.90
51637;DHT22;37713;53.254;6.460;2022-12-20T06:34:00;9.60;99.90
51637;DHT22;37713;53.254;6.460;2022-12-20T06:36:26;9.70;99.90
51637;DHT22;37713;53.254;6.460;2022-12-20T06:38:52;9.60;99.90
51637;DHT22;37713;53.254;6.460;2022-12-20T06:41:18;9.70;99.90
51637;DHT22;37713;53.254;6.460;2022-12-20T06:43:44;9.70;99.90
51637;DHT22;37713;53.254;6.460;2022-12-20T06:46:10;9.70;99.90
51637;DHT22;37713;53.254;6.460;2022-12-20T06:48:35;9.70;99.90
51637;DHT22;37713;53.254;6.460;2022-12-20T06:51:01;9.60;99.90
51637;DHT22;37713;53.254;6.460;2022-12-20T06:53:27;9.70;99.90
51637;DHT22;37713;53.254;6.460;2022-12-20T06:55:53;9.70;99.90
51637;DHT22;37713;53.254;6.460;2022-12-20T06:58:19;9.70;99.90
51637;DHT22;37713;53.254;6.460;2022-12-20T07:00:45;9.80;99.90
51637;DHT22;37713;53.254;6.460;2022-12-20T07:03:12;9.80;99.90
51637;DHT22;37713;53.254;6.460;2022-12-20T07:05:38;9.80;99.90
51637;DHT22;37713;53.254;6.460;2022-12-20T07:08:04;9.80;99.90
51637;DHT22;37713;53.254;6.460;2022-12-20T07:10:34;9.80;99.90
51637;DHT22;37713;53.254;6.460;2022-12-20T07:13:00;9.80;99.90
51637;DHT22;37713;53.254;6.460;2022-12-20T07:15:26;9.80;99.90
51637;DHT22;37713;53.254;6.460;2022-12-20T07:17:51;9.80;99.90
51637;DHT22;37713;53.254;6.460;2022-12-20T07:20:17;9.80;99.90
51637;DHT22;37713;53.254;6.460;2022-12-20T07:22:46;9.80;99.90
51637;DHT22;37713;53.254;6.460;2022-12-20T07:25:12;9.80;99.90
51637;DHT22;37713;53.254;6.460;2022-12-20T07:27:38;9.80;99.90
51637;DHT22;37713;53.254;6.460;2022-12-20T07:30:04;9.80;99.90
51637;DHT22;37713;53.254;6.460;2022-12-20T07:32:30;9.80;99.90
51637;DHT22;37713;53.254;6.460;2022-12-20T07:34:56;9.70;99.90
51637;DHT22;37713;53.254;6.460;2022-12-20T07:37:23;9.80;99.90
51637;DHT22;37713;53.254;6.460;2022-12-20T07:39:49;9.80;99.90
51637;DHT22;37713;53.254;6.460;2022-12-20T07:42:14;9.90;99.90
51637;DHT22;37713;53.254;6.460;2022-12-20T07:44:41;9.80;99.90
51637;DHT22;37713;53.254;6.460;2022-12-20T07:47:07;9.80;99.90
51637;DHT22;37713;53.254;6.460;2022-12-20T07:49:34;9.80;99.90
51637;DHT22;37713;53.254;6.460;2022-12-20T07:52:01;9.80;99.90
51637;DHT22;37713;53.254;6.460;2022-12-20T07:54:46;9.80;99.90
51637;DHT22;37713;53.254;6.460;2022-12-20T07:57:18;9.80;99.90
51637;DHT22;37713;53.254;6.460;2022-12-20T07:59:49;9.90;99.90
51637;DHT22;37713;53.254;6.460;2022-12-20T08:02:43;9.80;99.90
51637;DHT22;37713;53.254;6.460;2022-12-20T08:05:11;9.80;99.90
51637;DHT22;37713;53.254;6.460;2022-12-20T08:07:39;9.90;99.90
51637;DHT22;37713;53.254;6.460;2022-12-20T08:10:08;9.90;99.90
51637;DHT22;37713;53.254;6.460;2022-12-20T08:12:35;9.90;99.90
51637;DHT22;37713;53.254;6.460;2022-12-20T08:15:01;9.90;99.90
51637;DHT22;37713;53.254;6.460;2022-12-20T08:17:27;9.90;99.90
51637;DHT22;37713;53.254;6.460;2022-12-20T08:19:53;10.00;99.90
51637;DHT22;37713;53.254;6.460;2022-12-20T08:22:19;10.00;99.90
51637;DHT22;37713;53.254;6.460;2022-12-20T08:24:45;9.90;99.90
51637;DHT22;37713;53.254;6.460;2022-12-20T08:27:10;9.90;99.90
51637;DHT22;37713;53.254;6.460;2022-12-20T08:29:37;10.00;99.90
51637;DHT22;37713;53.254;6.460;2022-12-20T08:32:03;10.10;99.90
51637;DHT22;37713;53.254;6.460;2022-12-20T08:34:28;10.00;99.90
51637;DHT22;37713;53.254;6.460;2022-12-20T08:36:55;10.10;99.90
51637;DHT22;37713;53.254;6.460;2022-12-20T08:39:20;10.00;99.90
51637;DHT22;37713;53.254;6.460;2022-12-20T08:41:46;10.10;99.90
51637;DHT22;37713;53.254;6.460;2022-12-20T08:44:12;10.10;99.90
51637;DHT22;37713;53.254;6.460;2022-12-20T08:46:38;10.10;99.90
51637;DHT22;37713;53.254;6.460;2022-12-20T08:49:04;10.00;99.90
51637;DHT22;37713;53.254;6.460;2022-12-20T08:51:30;10.00;99.90
51637;DHT22;37713;53.254;6.460;2022-12-20T08:53:56;10.00;99.90
51637;DHT22;37713;53.254;6.460;2022-12-20T08:56:21;10.00;99.90
51637;DHT22;37713;53.254;6.460;2022-12-20T08:58:47;10.10;99.90
51637;DHT22;37713;53.254;6.460;2022-12-20T09:01:16;10.10;99.90
51637;DHT22;37713;53.254;6.460;2022-12-20T09:03:43;10.10;99.90
51637;DHT22;37713;53.254;6.460;2022-12-20T09:06:15;10.10;99.90
51637;DHT22;37713;53.254;6.460;2022-12-20T09:08:41;10.00;99.90
51637;DHT22;37713;53.254;6.460;2022-12-20T09:11:10;10.10;99.90
51637;DHT22;37713;53.254;6.460;2022-12-20T09:13:37;10.10;99.90
51637;DHT22;37713;53.254;6.460;2022-12-20T09:16:04;10.20;99.90
51637;DHT22;37713;53.254;6.460;2022-12-20T09:18:31;10.20;99.90
51637;DHT22;37713;53.254;6.460;2022-12-20T09:21:01;10.20;99.90
51637;DHT22;37713;53.254;6.460;2022-12-20T09:23:28;10.20;99.90
51637;DHT22;37713;53.254;6.460;2022-12-20T09:25:55;10.20;99.90
51637;DHT22;37713;53.254;6.460;2022-12-20T09:28:25;10.20;99.90
51637;DHT22;37713;53.254;6.460;2022-12-20T09:30:51;10.20;99.90
51637;DHT22;37713;53.254;6.460;2022-12-20T09:33:16;10.30;99.90
51637;DHT22;37713;53.254;6.460;2022-12-20T09:35:44;10.30;99.90
51637;DHT22;37713;53.254;6.460;2022-12-20T09:38:10;10.30;99.90
51637;DHT22;37713;53.254;6.460;2022-12-20T09:40:36;10.30;99.90
51637;DHT22;37713;53.254;6.460;2022-12-20T09:43:04;10.30;99.90
51637;DHT22;37713;53.254;6.460;2022-12-20T09:45:33;10.40;99.90
51637;DHT22;37713;53.254;6.460;2022-12-20T09:47:59;10.40;99.90
51637;DHT22;37713;53.254;6.460;2022-12-20T09:56:04;10.50;99.90
51637;DHT22;37713;53.254;6.460;2022-12-20T09:59:31;10.60;99.90
51637;DHT22;37713;53.254;6.460;2022-12-20T10:01:43;10.60;99.90
51637;DHT22;37713;53.254;6.460;2022-12-20T10:04:29;10.60;99.90
51637;DHT22;37713;53.254;6.460;2022-12-20T10:13:02;10.60;99.90
51637;DHT22;37713;53.254;6.460;2022-12-20T10:15:37;10.60;99.90
51637;DHT22;37713;53.254;6.460;2022-12-20T10:21:17;10.60;99.90
51637;DHT22;37713;53.254;6.460;2022-12-20T10:23:57;10.60;99.90
51637;DHT22;37713;53.254;6.460;2022-12-20T10:26:25;10.60;99.90
51637;DHT22;37713;53.254;6.460;2022-12-20T10:28:50;10.60;99.90
51637;DHT22;37713;53.254;6.460;2022-12-20T10:31:17;10.50;99.90
51637;DHT22;37713;53.254;6.460;2022-12-20T10:33:44;10.60;99.90
51637;DHT22;37713;53.254;6.460;2022-12-20T10:36:36;10.60;99.90
51637;DHT22;37713;53.254;6.460;2022-12-20T10:39:05;10.60;99.90
51637;DHT22;37713;53.254;6.460;2022-12-20T10:41:46;10.60;99.90
51637;DHT22;37713;53.254;6.460;2022-12-20T10:44:39;10.70;99.90
51637;DHT22;37713;53.254;6.460;2022-12-20T10:47:39;10.60;99.90
51637;DHT22;37713;53.254;6.460;2022-12-20T10:50:15;10.70;99.90
51637;DHT22;37713;53.254;6.460;2022-12-20T10:52:43;10.70;99.90
51637;DHT22;37713;53.254;6.460;2022-12-20T10:55:38;10.60;99.90
51637;DHT22;37713;53.254;6.460;2022-12-20T11:00:49;10.70;99.90
51637;DHT22;37713;53.254;6.460;2022-12-20T11:03:18;10.70;99.90
51637;DHT22;37713;53.254;6.460;2022-12-20T11:06:02;10.60;99.90
51637;DHT22;37713;53.254;6.460;2022-12-20T11:08:30;10.70;99.90
51637;DHT22;37713;53.254;6.460;2022-12-20T11:13:41;10.60;99.90
51637;DHT22;37713;53.254;6.460;2022-12-20T11:21:44;10.60;99.90
51637;DHT22;37713;53.254;6.460;2022-12-20T11:29:35;10.50;99.90
51637;DHT22;37713;53.254;6.460;2022-12-20T11:40:30;10.50;99.90
51637;DHT22;37713;53.254;6.460;2022-12-20T11:56:37;10.40;99.90
51637;DHT22;37713;53.254;6.460;2022-12-20T12:01:45;10.40;99.90
51637;DHT22;37713;53.254;6.460;2022-12-20T12:04:21;10.40;99.90
51637;DHT22;37713;53.254;6.460;2022-12-20T12:06:55;10.40;99.90
51637;DHT22;37713;53.254;6.460;2022-12-20T12:09:35;10.40;99.90
51637;DHT22;37713;53.254;6.460;2022-12-20T12:12:18;10.40;99.90
51637;DHT22;37713;53.254;6.460;2022-12-20T12:20:18;10.30;99.90
51637;DHT22;37713;53.254;6.460;2022-12-20T12:22:48;10.30;99.90
51637;DHT22;37713;53.254;6.460;2022-12-20T12:25:16;10.40;99.90
51637;DHT22;37713;53.254;6.460;2022-12-20T12:27:42;10.40;99.90
51637;DHT22;37713;53.254;6.460;2022-12-20T12:30:15;10.30;99.90
51637;DHT22;37713;53.254;6.460;2022-12-20T12:32:43;10.30;99.90
51637;DHT22;37713;53.254;6.460;2022-12-20T12:45:59;10.30;99.90
51637;DHT22;37713;53.254;6.460;2022-12-20T12:50:57;10.40;99.90
51637;DHT22;37713;53.254;6.460;2022-12-20T13:09:21;10.30;99.90
51637;DHT22;37713;53.254;6.460;2022-12-20T13:13:05;10.20;99.90
51637;DHT22;37713;53.254;6.460;2022-12-20T13:18:00;10.30;99.90
51637;DHT22;37713;53.254;6.460;2022-12-20T13:20:31;10.30;99.90
51637;DHT22;37713;53.254;6.460;2022-12-20T13:25:35;10.30;99.90
51637;DHT22;37713;53.254;6.460;2022-12-20T13:33:46;10.30;99.90
51637;DHT22;37713;53.254;6.460;2022-12-20T13:38:49;10.40;99.90
51637;DHT22;37713;53.254;6.460;2022-12-20T13:43:47;10.40;99.90
51637;DHT22;37713;53.254;6.460;2022-12-20T13:46:23;10.40;99.90
51637;DHT22;37713;53.254;6.460;2022-12-20T13:49:01;10.40;99.90
51637;DHT22;37713;53.254;6.460;2022-12-20T13:51:29;10.30;99.90
51637;DHT22;37713;53.254;6.460;2022-12-20T13:59:32;10.40;99.90
51637;DHT22;37713;53.254;6.460;2022-12-20T14:02:00;10.30;99.90
51637;DHT22;37713;53.254;6.460;2022-12-20T14:04:39;10.30;99.90
51637;DHT22;37713;53.254;6.460;2022-12-20T14:07:07;10.40;99.90
51637;DHT22;37713;53.254;6.460;2022-12-20T14:09:36;10.40;99.90
51637;DHT22;37713;53.254;6.460;2022-12-20T14:12:11;10.40;99.90
51637;DHT22;37713;53.254;6.460;2022-12-20T14:14:38;10.40;99.90
51637;DHT22;37713;53.254;6.460;2022-12-20T14:17:26;10.30;99.90
51637;DHT22;37713;53.254;6.460;2022-12-20T14:20:12;10.40;99.90
51637;DHT22;37713;53.254;6.460;2022-12-20T14:25:31;10.30;99.90
51637;DHT22;37713;53.254;6.460;2022-12-20T14:27:58;10.40;99.90
51637;DHT22;37713;53.254;6.460;2022-12-20T14:32:55;10.40;99.90
51637;DHT22;37713;53.254;6.460;2022-12-20T14:35:21;10.40;99.90
51637;DHT22;37713;53.254;6.460;2022-12-20T14:38:00;10.40;99.90
51637;DHT22;37713;53.254;6.460;2022-12-20T14:40:28;10.30;99.90
51637;DHT22;37713;53.254;6.460;2022-12-20T14:42:55;10.40;99.90
51637;DHT22;37713;53.254;6.460;2022-12-20T14:45:26;10.40;99.90
51637;DHT22;37713;53.254;6.460;2022-12-20T14:50:35;10.40;99.90
51637;DHT22;37713;53.254;6.460;2022-12-20T14:53:02;10.30;99.90
51637;DHT22;37713;53.254;6.460;2022-12-20T14:55:37;10.30;99.90
51637;DHT22;37713;53.254;6.460;2022-12-20T15:03:25;10.30;99.90
51637;DHT22;37713;53.254;6.460;2022-12-20T15:05:56;10.30;99.90
51637;DHT22;37713;53.254;6.460;2022-12-20T15:08:29;10.40;99.90
51637;DHT22;37713;53.254;6.460;2022-12-20T15:13:41;10.40;99.90
51637;DHT22;37713;53.254;6.460;2022-12-20T15:16:22;10.40;99.90
51637;DHT22;37713;53.254;6.460;2022-12-20T15:18:53;10.30;99.90
51637;DHT22;37713;53.254;6.460;2022-12-20T15:21:35;10.40;99.90
51637;DHT22;37713;53.254;6.460;2022-12-20T15:24:07;10.30;99.90
51637;DHT22;37713;53.254;6.460;2022-12-20T15:26:35;10.30;99.90
51637;DHT22;37713;53.254;6.460;2022-12-20T15:29:01;10.30;99.90
51637;DHT22;37713;53.254;6.460;2022-12-20T15:31:28;10.40;99.90
51637;DHT22;37713;53.254;6.460;2022-12-20T15:33:54;10.40;99.90
51637;DHT22;37713;53.254;6.460;2022-12-20T15:36:25;10.30;99.90
51637;DHT22;37713;53.254;6.460;2022-12-20T15:38:52;10.30;99.90
51637;DHT22;37713;53.254;6.460;2022-12-20T15:44:02;10.30;99.90
51637;DHT22;37713;53.254;6.460;2022-12-20T15:46:29;10.30;99.90
51637;DHT22;37713;53.254;6.460;2022-12-20T15:48:56;10.30;99.90
51637;DHT22;37713;53.254;6.460;2022-12-20T15:51:35;10.20;99.90
51637;DHT22;37713;53.254;6.460;2022-12-20T15:54:03;10.30;99.90
51637;DHT22;37713;53.254;6.460;2022-12-20T15:56:29;10.40;99.90
51637;DHT22;37713;53.254;6.460;2022-12-20T15:58:55;10.30;99.90
51637;DHT22;37713;53.254;6.460;2022-12-20T16:01:24;10.30;99.90
51637;DHT22;37713;53.254;6.460;2022-12-20T16:03:51;10.30;99.90
51637;DHT22;37713;53.254;6.460;2022-12-20T16:06:17;10.30;99.90
51637;DHT22;37713;53.254;6.460;2022-12-20T16:08:43;10.20;99.90
51637;DHT22;37713;53.254;6.460;2022-12-20T16:11:27;10.20;99.90
51637;DHT22;37713;53.254;6.460;2022-12-20T16:13:54;10.30;99.90
51637;DHT22;37713;53.254;6.460;2022-12-20T16:16:23;10.20;99.90
51637;DHT22;37713;53.254;6.460;2022-12-20T16:18:49;10.10;99.90
51637;DHT22;37713;53.254;6.460;2022-12-20T16:21:20;10.20;99.90
51637;DHT22;37713;53.254;6.460;2022-12-20T16:23:47;10.10;99.90
51637;DHT22;37713;53.254;6.460;2022-12-20T16:26:16;10.20;99.90
51637;DHT22;37713;53.254;6.460;2022-12-20T16:28:44;10.20;99.90
51637;DHT22;37713;53.254;6.460;2022-12-20T16:31:31;10.10;99.90
51637;DHT22;37713;53.254;6.460;2022-12-20T16:33:59;10.00;99.90
51637;DHT22;37713;53.254;6.460;2022-12-20T16:36:25;10.10;99.90
51637;DHT22;37713;53.254;6.460;2022-12-20T16:38:52;10.10;99.90
51637;DHT22;37713;53.254;6.460;2022-12-20T16:41:23;10.10;99.90
51637;DHT22;37713;53.254;6.460;2022-12-20T16:43:53;10.10;99.90
51637;DHT22;37713;53.254;6.460;2022-12-20T16:46:21;10.00;99.90
51637;DHT22;37713;53.254;6.460;2022-12-20T16:48:48;10.00;99.90
51637;DHT22;37713;53.254;6.460;2022-12-20T16:51:32;10.00;99.90
51637;DHT22;37713;53.254;6.460;2022-12-20T16:54:03;10.00;99.90
51637;DHT22;37713;53.254;6.460;2022-12-20T16:56:30;10.10;99.90
51637;DHT22;37713;53.254;6.460;2022-12-20T16:58:56;10.00;99.90
51637;DHT22;37713;53.254;6.460;2022-12-20T17:01:31;10.10;99.90
51637;DHT22;37713;53.254;6.460;2022-12-20T17:03:57;10.10;99.90
51637;DHT22;37713;53.254;6.460;2022-12-20T17:06:26;10.10;99.90
51637;DHT22;37713;53.254;6.460;2022-12-20T17:08:52;10.10;99.90
51637;DHT22;37713;53.254;6.460;2022-12-20T17:11:20;10.10;99.90
51637;DHT22;37713;53.254;6.460;2022-12-20T17:13:48;9.90;99.90
51637;DHT22;37713;53.254;6.460;2022-12-20T17:16:15;10.00;99.90
51637;DHT22;37713;53.254;6.460;2022-12-20T17:18:43;10.00;99.90
51637;DHT22;37713;53.254;6.460;2022-12-20T17:23:46;9.90;99.90
51637;DHT22;37713;53.254;6.460;2022-12-20T17:26:22;9.90;99.90
51637;DHT22;37713;53.254;6.460;2022-12-20T17:28:50;9.90;99.90
51637;DHT22;37713;53.254;6.460;2022-12-20T17:34:01;9.90;99.90
51637;DHT22;37713;53.254;6.460;2022-12-20T17:36:28;9.90;99.90
51637;DHT22;37713;53.254;6.460;2022-12-20T17:38:53;9.80;99.90
51637;DHT22;37713;53.254;6.460;2022-12-20T17:41:26;9.80;99.90
51637;DHT22;37713;53.254;6.460;2022-12-20T17:43:54;9.80;99.90
51637;DHT22;37713;53.254;6.460;2022-12-20T17:46:20;9.80;99.90
51637;DHT22;37713;53.254;6.460;2022-12-20T17:48:46;9.90;99.90
51637;DHT22;37713;53.254;6.460;2022-12-20T17:51:35;9.90;99.90
51637;DHT22;37713;53.254;6.460;2022-12-20T17:54:01;9.70;99.90
51637;DHT22;37713;53.254;6.460;2022-12-20T17:56:29;9.80;99.90
51637;DHT22;37713;53.254;6.460;2022-12-20T17:58:56;9.70;99.90
51637;DHT22;37713;53.254;6.460;2022-12-20T18:03:53;9.70;99.90
51637;DHT22;37713;53.254;6.460;2022-12-20T18:06:20;9.70;99.90
51637;DHT22;37713;53.254;6.460;2022-12-20T18:08:53;9.60;99.90
51637;DHT22;37713;53.254;6.460;2022-12-20T18:11:21;9.80;99.90
51637;DHT22;37713;53.254;6.460;2022-12-20T18:13:51;9.70;99.90
51637;DHT22;37713;53.254;6.460;2022-12-20T18:16:23;9.60;99.90
51637;DHT22;37713;53.254;6.460;2022-12-20T18:18:50;9.60;99.90
51637;DHT22;37713;53.254;6.460;2022-12-20T18:21:18;9.70;99.90
51637;DHT22;37713;53.254;6.460;2022-12-20T18:23:45;9.70;99.90